sensor_id;sensor_type;location;lat;lon;timestamp;P1;durP1;ratioP1;P2;durP2;ratioP2
82288;SDS011;71889;39.264;-120.910;2023-12-04T00:01:14;4.72;;;1.20;;
82288;SDS011;71889;39.264;-120.910;2023-12-04T00:03:40;6.28;;;1.75;;
82288;SDS011;71889;39.264;-120.910;2023-12-04T00:06:07;4.60;;;1.40;;
82288;SDS011;71889;39.264;-120.910;2023-12-04T00:08:35;5.68;;;1.67;;
82288;SDS011;71889;39.264;-120.910;2023-12-04T00:11:02;4.60;;;1.30;;
82288;SDS011;71889;39.264;-120.910;2023-12-04T00:13:29;3.63;;;1.42;;
82288;SDS011;71889;39.264;-120.910;2023-12-04T00:15:56;4.43;;;2.28;;
82288;SDS011;71889;39.264;-120.910;2023-12-04T00:18:22;6.13;;;2.42;;
82288;SDS011;71889;39.264;-120.910;2023-12-04T00:20:49;5.85;;;2.70;;
82288;SDS011;71889;39.264;-120.910;2023-12-04T00:23:15;4.68;;;2.85;;
82288;SDS011;71889;39.264;-120.910;2023-12-04T00:25:42;7.20;;;1.85;;
82288;SDS011;71889;39.264;-120.910;2023-12-04T00:28:09;2.92;;;1.20;;
82288;SDS011;71889;39.264;-120.910;2023-12-04T00:30:35;5.35;;;1.50;;
82288;SDS011;71889;39.264;-120.910;2023-12-04T00:33:02;1.77;;;0.88;;
82288;SDS011;71889;39.264;-120.910;2023-12-04T00:35:29;1.67;;;0.80;;
82288;SDS011;71889;39.264;-120.910;2023-12-04T00:37:55;1.17;;;0.75;;
82288;SDS011;71889;39.264;-120.910;2023-12-04T00:40:22;5.13;;;0.90;;
82288;SDS011;71889;39.264;-120.910;2023-12-04T00:42:49;3.47;;;1.90;;
82288;SDS011;71889;39.264;-120.910;2023-12-04T00:45:15;3.70;;;2.20;;
82288;SDS011;71889;39.264;-120.910;2023-12-04T00:48:00;5.45;;;2.22;;
82288;SDS011;71889;39.264;-120.910;2023-12-04T00:50:27;5.28;;;2.75;;
82288;SDS011;71889;39.264;-120.910;2023-12-04T00:52:53;3.47;;;1.85;;
82288;SDS011;71889;39.264;-120.910;2023-12-04T00:55:20;7.25;;;2.60;;
82288;SDS011;71889;39.264;-120.910;2023-12-04T00:57:47;4.15;;;2.47;;
82288;SDS011;71889;39.264;-120.910;2023-12-04T01:00:14;3.70;;;2.35;;
82288;SDS011;71889;39.264;-120.910;2023-12-04T01:02:40;4.32;;;2.30;;
82288;SDS011;71889;39.264;-120.910;2023-12-04T01:05:08;5.50;;;2.92;;
82288;SDS011;71889;39.264;-120.910;2023-12-04T01:07:36;7.78;;;4.13;;
82288;SDS011;71889;39.264;-120.910;2023-12-04T01:10:03;15.57;;;6.25;;
82288;SDS011;71889;39.264;-120.910;2023-12-04T01:12:30;28.35;;;12.13;;
82288;SDS011;71889;39.264;-120.910;2023-12-04T01:14:56;23.05;;;9.95;;
82288;SDS011;71889;39.264;-120.910;2023-12-04T01:17:23;11.98;;;6.18;;
82288;SDS011;71889;39.264;-120.910;2023-12-04T01:19:50;10.80;;;5.30;;
82288;SDS011;71889;39.264;-120.910;2023-12-04T01:22:16;9.75;;;4.20;;
82288;SDS011;71889;39.264;-120.910;2023-12-04T01:24:43;6.82;;;3.05;;
82288;SDS011;71889;39.264;-120.910;2023-12-04T01:27:09;5.13;;;2.10;;
82288;SDS011;71889;39.264;-120.910;2023-12-04T01:29:37;4.07;;;1.70;;
82288;SDS011;71889;39.264;-120.910;2023-12-04T01:32:03;3.38;;;1.77;;
82288;SDS011;71889;39.264;-120.910;2023-12-04T01:34:30;5.35;;;1.60;;
82288;SDS011;71889;39.264;-120.910;2023-12-04T01:36:57;3.78;;;1.80;;
82288;SDS011;71889;39.264;-120.910;2023-12-04T01:39:23;9.23;;;3.90;;
82288;SDS011;71889;39.264;-120.910;2023-12-04T01:41:50;12.82;;;5.30;;
82288;SDS011;71889;39.264;-120.910;2023-12-04T01:44:17;13.82;;;8.57;;
82288;SDS011;71889;39.264;-120.910;2023-12-04T01:46:43;13.43;;;8.63;;
82288;SDS011;71889;39.264;-120.910;2023-12-04T01:49:10;12.65;;;8.45;;
82288;SDS011;71889;39.264;-120.910;2023-12-04T01:51:37;13.27;;;7.65;;
82288;SDS011;71889;39.264;-120.910;2023-12-04T01:54:03;8.23;;;5.40;;
82288;SDS011;71889;39.264;-120.910;2023-12-04T01:56:31;9.02;;;4.50;;
82288;SDS011;71889;39.264;-120.910;2023-12-04T01:58:58;7.10;;;3.67;;
82288;SDS011;71889;39.264;-120.910;2023-12-04T02:01:25;6.63;;;3.80;;
82288;SDS011;71889;39.264;-120.910;2023-12-04T02:03:53;7.30;;;4.50;;
82288;SDS011;71889;39.264;-120.910;2023-12-04T02:06:20;13.98;;;7.47;;
82288;SDS011;71889;39.264;-120.910;2023-12-04T02:08:47;13.07;;;8.25;;
82288;SDS011;71889;39.264;-120.910;2023-12-04T02:11:14;12.43;;;7.10;;
82288;SDS011;71889;39.264;-120.910;2023-12-04T02:13:41;13.55;;;6.47;;
82288;SDS011;71889;39.264;-120.910;2023-12-04T02:16:09;10.45;;;5.85;;
82288;SDS011;71889;39.264;-120.910;2023-12-04T02:18:35;9.45;;;5.38;;
82288;SDS011;71889;39.264;-120.910;2023-12-04T02:21:03;8.57;;;4.43;;
82288;SDS011;71889;39.264;-120.910;2023-12-04T02:23:29;6.85;;;3.33;;
82288;SDS011;71889;39.264;-120.910;2023-12-04T02:25:59;9.85;;;4.05;;
82288;SDS011;71889;39.264;-120.910;2023-12-04T02:28:28;4.80;;;2.92;;
82288;SDS011;71889;39.264;-120.910;2023-12-04T02:30:56;12.73;;;6.03;;
82288;SDS011;71889;39.264;-120.910;2023-12-04T02:33:24;9.15;;;4.80;;
82288;SDS011;71889;39.264;-120.910;2023-12-04T02:35:51;11.68;;;6.63;;
82288;SDS011;71889;39.264;-120.910;2023-12-04T02:38:18;9.85;;;5.95;;
82288;SDS011;71889;39.264;-120.910;2023-12-04T02:40:45;18.33;;;8.10;;
82288;SDS011;71889;39.264;-120.910;2023-12-04T02:43:12;12.95;;;6.90;;
82288;SDS011;71889;39.264;-120.910;2023-12-04T02:45:39;7.20;;;4.70;;
82288;SDS011;71889;39.264;-120.910;2023-12-04T02:48:05;9.80;;;3.72;;
82288;SDS011;71889;39.264;-120.910;2023-12-04T02:50:32;4.25;;;2.00;;
82288;SDS011;71889;39.264;-120.910;2023-12-04T02:52:59;4.47;;;2.10;;
82288;SDS011;71889;39.264;-120.910;2023-12-04T02:55:26;4.50;;;2.15;;
82288;SDS011;71889;39.264;-120.910;2023-12-04T02:57:52;16.27;;;4.10;;
82288;SDS011;71889;39.264;-120.910;2023-12-04T03:00:19;14.55;;;5.55;;
82288;SDS011;71889;39.264;-120.910;2023-12-04T03:02:45;22.10;;;8.10;;
82288;SDS011;71889;39.264;-120.910;2023-12-04T03:05:12;20.30;;;7.80;;
82288;SDS011;71889;39.264;-120.910;2023-12-04T03:07:39;22.73;;;8.25;;
82288;SDS011;71889;39.264;-120.910;2023-12-04T03:10:05;20.48;;;8.15;;
82288;SDS011;71889;39.264;-120.910;2023-12-04T03:12:32;22.20;;;8.38;;
82288;SDS011;71889;39.264;-120.910;2023-12-04T03:14:59;26.13;;;10.02;;
82288;SDS011;71889;39.264;-120.910;2023-12-04T03:17:25;34.85;;;11.85;;
82288;SDS011;71889;39.264;-120.910;2023-12-04T03:19:52;38.85;;;10.18;;
82288;SDS011;71889;39.264;-120.910;2023-12-04T03:22:19;52.97;;;12.52;;
82288;SDS011;71889;39.264;-120.910;2023-12-04T03:24:45;29.05;;;9.55;;
82288;SDS011;71889;39.264;-120.910;2023-12-04T03:27:12;20.92;;;7.93;;
82288;SDS011;71889;39.264;-120.910;2023-12-04T03:29:39;29.40;;;8.65;;
82288;SDS011;71889;39.264;-120.910;2023-12-04T03:32:05;26.27;;;6.78;;
82288;SDS011;71889;39.264;-120.910;2023-12-04T03:34:32;53.30;;;4.40;;
82288;SDS011;71889;39.264;-120.910;2023-12-04T03:36:59;32.22;;;5.03;;
82288;SDS011;71889;39.264;-120.910;2023-12-04T03:39:25;34.08;;;3.72;;
82288;SDS011;71889;39.264;-120.910;2023-12-04T03:41:52;12.18;;;2.92;;
82288;SDS011;71889;39.264;-120.910;2023-12-04T03:44:19;52.22;;;3.83;;
82288;SDS011;71889;39.264;-120.910;2023-12-04T03:46:45;16.75;;;2.47;;
82288;SDS011;71889;39.264;-120.910;2023-12-04T03:49:12;54.30;;;4.30;;
82288;SDS011;71889;39.264;-120.910;2023-12-04T03:51:38;52.35;;;3.97;;
82288;SDS011;71889;39.264;-120.910;2023-12-04T03:54:05;38.90;;;4.05;;
82288;SDS011;71889;39.264;-120.910;2023-12-04T03:56:32;50.55;;;3.35;;
82288;SDS011;71889;39.264;-120.910;2023-12-04T03:58:58;24.08;;;3.13;;
82288;SDS011;71889;39.264;-120.910;2023-12-04T04:01:25;38.55;;;3.03;;
82288;SDS011;71889;39.264;-120.910;2023-12-04T04:03:52;34.75;;;2.80;;
82288;SDS011;71889;39.264;-120.910;2023-12-04T04:06:18;34.03;;;3.22;;
82288;SDS011;71889;39.264;-120.910;2023-12-04T04:08:45;26.30;;;3.55;;
82288;SDS011;71889;39.264;-120.910;2023-12-04T04:11:11;12.23;;;2.28;;
82288;SDS011;71889;39.264;-120.910;2023-12-04T04:13:38;17.60;;;1.77;;
82288;SDS011;71889;39.264;-120.910;2023-12-04T04:16:05;4.72;;;1.30;;
82288;SDS011;71889;39.264;-120.910;2023-12-04T04:18:32;2.13;;;1.23;;
82288;SDS011;71889;39.264;-120.910;2023-12-04T04:21:02;3.13;;;0.98;;
82288;SDS011;71889;39.264;-120.910;2023-12-04T04:25:54;22.80;;;2.00;;
82288;SDS011;71889;39.264;-120.910;2023-12-04T04:28:21;10.80;;;3.08;;
82288;SDS011;71889;39.264;-120.910;2023-12-04T04:30:48;11.30;;;2.45;;
82288;SDS011;71889;39.264;-120.910;2023-12-04T04:33:15;4.15;;;1.50;;
82288;SDS011;71889;39.264;-120.910;2023-12-04T04:35:42;22.13;;;2.25;;
82288;SDS011;71889;39.264;-120.910;2023-12-04T04:38:09;20.88;;;3.13;;
82288;SDS011;71889;39.264;-120.910;2023-12-04T04:40:36;21.77;;;2.95;;
82288;SDS011;71889;39.264;-120.910;2023-12-04T04:43:07;4.93;;;2.30;;
82288;SDS011;71889;39.264;-120.910;2023-12-04T04:45:34;15.50;;;5.88;;
82288;SDS011;71889;39.264;-120.910;2023-12-04T04:48:01;6.85;;;2.72;;
82288;SDS011;71889;39.264;-120.910;2023-12-04T04:50:27;2.33;;;1.17;;
82288;SDS011;71889;39.264;-120.910;2023-12-04T04:52:55;2.33;;;1.10;;
82288;SDS011;71889;39.264;-120.910;2023-12-04T04:55:21;1.88;;;0.98;;
82288;SDS011;71889;39.264;-120.910;2023-12-04T04:57:48;5.13;;;1.25;;
82288;SDS011;71889;39.264;-120.910;2023-12-04T05:00:14;1.70;;;0.75;;
82288;SDS011;71889;39.264;-120.910;2023-12-04T05:02:41;6.93;;;2.00;;
82288;SDS011;71889;39.264;-120.910;2023-12-04T05:05:08;11.23;;;2.08;;
82288;SDS011;71889;39.264;-120.910;2023-12-04T05:07:35;4.03;;;1.45;;
82288;SDS011;71889;39.264;-120.910;2023-12-04T05:10:01;3.53;;;1.30;;
82288;SDS011;71889;39.264;-120.910;2023-12-04T05:12:28;2.22;;;0.95;;
82288;SDS011;71889;39.264;-120.910;2023-12-04T05:14:55;9.73;;;2.28;;
82288;SDS011;71889;39.264;-120.910;2023-12-04T05:17:21;1.83;;;0.80;;
82288;SDS011;71889;39.264;-120.910;2023-12-04T05:19:48;3.92;;;1.35;;
82288;SDS011;71889;39.264;-120.910;2023-12-04T05:22:14;3.10;;;0.93;;
82288;SDS011;71889;39.264;-120.910;2023-12-04T05:24:41;2.03;;;0.70;;
82288;SDS011;71889;39.264;-120.910;2023-12-04T05:27:08;13.93;;;3.10;;
82288;SDS011;71889;39.264;-120.910;2023-12-04T05:29:34;18.23;;;5.45;;
82288;SDS011;71889;39.264;-120.910;2023-12-04T05:32:01;22.65;;;5.80;;
82288;SDS011;71889;39.264;-120.910;2023-12-04T05:34:28;16.45;;;3.45;;
82288;SDS011;71889;39.264;-120.910;2023-12-04T05:36:54;23.27;;;4.20;;
82288;SDS011;71889;39.264;-120.910;2023-12-04T05:39:21;77.20;;;14.73;;
82288;SDS011;71889;39.264;-120.910;2023-12-04T05:41:48;40.90;;;9.60;;
82288;SDS011;71889;39.264;-120.910;2023-12-04T05:44:14;8.98;;;1.98;;
82288;SDS011;71889;39.264;-120.910;2023-12-04T05:46:41;3.40;;;0.95;;
82288;SDS011;71889;39.264;-120.910;2023-12-04T05:49:08;5.90;;;1.00;;
82288;SDS011;71889;39.264;-120.910;2023-12-04T05:51:35;17.73;;;5.35;;
82288;SDS011;71889;39.264;-120.910;2023-12-04T05:54:03;37.33;;;9.63;;
82288;SDS011;71889;39.264;-120.910;2023-12-04T05:56:30;51.92;;;14.45;;
82288;SDS011;71889;39.264;-120.910;2023-12-04T05:58:57;32.15;;;10.85;;
82288;SDS011;71889;39.264;-120.910;2023-12-04T06:01:23;22.50;;;7.32;;
82288;SDS011;71889;39.264;-120.910;2023-12-04T06:03:50;9.25;;;3.67;;
82288;SDS011;71889;39.264;-120.910;2023-12-04T06:06:16;6.32;;;2.05;;
82288;SDS011;71889;39.264;-120.910;2023-12-04T06:08:43;7.43;;;2.03;;
82288;SDS011;71889;39.264;-120.910;2023-12-04T06:11:10;4.50;;;1.48;;
82288;SDS011;71889;39.264;-120.910;2023-12-04T06:13:36;1.83;;;0.65;;
82288;SDS011;71889;39.264;-120.910;2023-12-04T06:16:03;0.73;;;0.40;;
82288;SDS011;71889;39.264;-120.910;2023-12-04T06:18:30;2.03;;;0.70;;
82288;SDS011;71889;39.264;-120.910;2023-12-04T06:20:56;1.67;;;0.88;;
82288;SDS011;71889;39.264;-120.910;2023-12-04T06:23:23;1.80;;;0.70;;
82288;SDS011;71889;39.264;-120.910;2023-12-04T06:25:50;1.35;;;0.55;;
82288;SDS011;71889;39.264;-120.910;2023-12-04T06:28:16;1.05;;;0.70;;
82288;SDS011;71889;39.264;-120.910;2023-12-04T06:30:43;1.40;;;0.70;;
82288;SDS011;71889;39.264;-120.910;2023-12-04T06:33:10;1.00;;;0.52;;
82288;SDS011;71889;39.264;-120.910;2023-12-04T06:35:40;4.72;;;0.77;;
82288;SDS011;71889;39.264;-120.910;2023-12-04T06:38:07;2.13;;;0.57;;
82288;SDS011;71889;39.264;-120.910;2023-12-04T06:40:34;1.85;;;0.63;;
82288;SDS011;71889;39.264;-120.910;2023-12-04T06:43:01;1.88;;;0.63;;
82288;SDS011;71889;39.264;-120.910;2023-12-04T06:45:27;6.38;;;1.85;;
82288;SDS011;71889;39.264;-120.910;2023-12-04T06:47:54;15.88;;;4.22;;
82288;SDS011;71889;39.264;-120.910;2023-12-04T06:50:21;21.38;;;6.55;;
82288;SDS011;71889;39.264;-120.910;2023-12-04T06:52:47;22.45;;;7.55;;
82288;SDS011;71889;39.264;-120.910;2023-12-04T06:55:14;18.98;;;7.32;;
82288;SDS011;71889;39.264;-120.910;2023-12-04T06:57:41;11.02;;;4.05;;
82288;SDS011;71889;39.264;-120.910;2023-12-04T07:00:08;13.07;;;4.30;;
82288;SDS011;71889;39.264;-120.910;2023-12-04T07:05:04;18.50;;;7.10;;
82288;SDS011;71889;39.264;-120.910;2023-12-04T07:07:31;17.38;;;5.57;;
82288;SDS011;71889;39.264;-120.910;2023-12-04T07:09:58;16.80;;;5.47;;
82288;SDS011;71889;39.264;-120.910;2023-12-04T07:12:25;34.05;;;12.30;;
82288;SDS011;71889;39.264;-120.910;2023-12-04T07:14:53;43.00;;;15.35;;
82288;SDS011;71889;39.264;-120.910;2023-12-04T07:17:20;26.27;;;9.93;;
82288;SDS011;71889;39.264;-120.910;2023-12-04T07:19:47;19.48;;;7.20;;
82288;SDS011;71889;39.264;-120.910;2023-12-04T07:22:14;10.88;;;3.67;;
82288;SDS011;71889;39.264;-120.910;2023-12-04T07:25:00;4.15;;;1.90;;
82288;SDS011;71889;39.264;-120.910;2023-12-04T07:27:27;4.15;;;1.70;;
82288;SDS011;71889;39.264;-120.910;2023-12-04T07:29:54;4.65;;;1.42;;
82288;SDS011;71889;39.264;-120.910;2023-12-04T07:32:20;3.58;;;1.30;;
82288;SDS011;71889;39.264;-120.910;2023-12-04T07:34:47;3.53;;;1.58;;
82288;SDS011;71889;39.264;-120.910;2023-12-04T07:37:15;4.47;;;1.95;;
82288;SDS011;71889;39.264;-120.910;2023-12-04T07:39:43;12.65;;;3.53;;
82288;SDS011;71889;39.264;-120.910;2023-12-04T07:42:11;10.88;;;3.65;;
82288;SDS011;71889;39.264;-120.910;2023-12-04T07:44:38;7.47;;;2.20;;
82288;SDS011;71889;39.264;-120.910;2023-12-04T07:47:05;6.38;;;1.98;;
82288;SDS011;71889;39.264;-120.910;2023-12-04T07:49:31;7.25;;;2.15;;
82288;SDS011;71889;39.264;-120.910;2023-12-04T07:51:58;5.13;;;1.50;;
82288;SDS011;71889;39.264;-120.910;2023-12-04T07:54:24;6.07;;;1.85;;
82288;SDS011;71889;39.264;-120.910;2023-12-04T07:56:52;5.10;;;1.25;;
82288;SDS011;71889;39.264;-120.910;2023-12-04T07:59:18;4.35;;;1.00;;
82288;SDS011;71889;39.264;-120.910;2023-12-04T08:01:45;3.30;;;1.23;;
82288;SDS011;71889;39.264;-120.910;2023-12-04T08:04:12;2.20;;;0.93;;
82288;SDS011;71889;39.264;-120.910;2023-12-04T08:06:38;3.15;;;1.25;;
82288;SDS011;71889;39.264;-120.910;2023-12-04T08:09:09;3.03;;;1.60;;
82288;SDS011;71889;39.264;-120.910;2023-12-04T08:11:36;5.72;;;1.45;;
82288;SDS011;71889;39.264;-120.910;2023-12-04T08:14:03;3.38;;;0.80;;
82288;SDS011;71889;39.264;-120.910;2023-12-04T08:16:29;4.65;;;0.90;;
82288;SDS011;71889;39.264;-120.910;2023-12-04T08:18:56;2.95;;;0.80;;
82288;SDS011;71889;39.264;-120.910;2023-12-04T08:21:23;5.18;;;1.00;;
82288;SDS011;71889;39.264;-120.910;2023-12-04T08:23:50;3.90;;;1.00;;
82288;SDS011;71889;39.264;-120.910;2023-12-04T08:26:23;2.45;;;1.23;;
82288;SDS011;71889;39.264;-120.910;2023-12-04T08:28:50;4.45;;;0.88;;
82288;SDS011;71889;39.264;-120.910;2023-12-04T08:31:16;7.80;;;1.40;;
82288;SDS011;71889;39.264;-120.910;2023-12-04T08:33:43;3.65;;;1.20;;
82288;SDS011;71889;39.264;-120.910;2023-12-04T08:36:11;3.13;;;1.30;;
82288;SDS011;71889;39.264;-120.910;2023-12-04T08:38:37;8.20;;;1.58;;
82288;SDS011;71889;39.264;-120.910;2023-12-04T08:41:04;4.88;;;1.77;;
82288;SDS011;71889;39.264;-120.910;2023-12-04T08:43:31;7.95;;;2.50;;
82288;SDS011;71889;39.264;-120.910;2023-12-04T08:45:57;4.53;;;1.70;;
82288;SDS011;71889;39.264;-120.910;2023-12-04T08:48:25;5.63;;;1.50;;
82288;SDS011;71889;39.264;-120.910;2023-12-04T08:50:52;3.47;;;1.45;;
82288;SDS011;71889;39.264;-120.910;2023-12-04T08:53:18;3.58;;;1.23;;
82288;SDS011;71889;39.264;-120.910;2023-12-04T08:55:45;5.13;;;1.70;;
82288;SDS011;71889;39.264;-120.910;2023-12-04T08:58:12;11.95;;;3.55;;
82288;SDS011;71889;39.264;-120.910;2023-12-04T09:00:39;14.10;;;4.38;;
82288;SDS011;71889;39.264;-120.910;2023-12-04T09:03:08;19.20;;;4.43;;
82288;SDS011;71889;39.264;-120.910;2023-12-04T09:05:38;16.52;;;4.07;;
82288;SDS011;71889;39.264;-120.910;2023-12-04T09:08:05;6.90;;;2.90;;
82288;SDS011;71889;39.264;-120.910;2023-12-04T09:10:32;5.53;;;3.13;;
82288;SDS011;71889;39.264;-120.910;2023-12-04T09:12:59;9.35;;;3.25;;
82288;SDS011;71889;39.264;-120.910;2023-12-04T09:15:26;7.47;;;2.97;;
82288;SDS011;71889;39.264;-120.910;2023-12-04T09:17:53;6.43;;;2.00;;
82288;SDS011;71889;39.264;-120.910;2023-12-04T09:20:19;4.25;;;1.90;;
82288;SDS011;71889;39.264;-120.910;2023-12-04T09:22:46;3.88;;;1.20;;
82288;SDS011;71889;39.264;-120.910;2023-12-04T09:25:13;2.33;;;1.10;;
82288;SDS011;71889;39.264;-120.910;2023-12-04T09:27:39;6.65;;;2.00;;
82288;SDS011;71889;39.264;-120.910;2023-12-04T09:30:06;30.35;;;1.90;;
82288;SDS011;71889;39.264;-120.910;2023-12-04T09:32:33;13.20;;;1.27;;
82288;SDS011;71889;39.264;-120.910;2023-12-04T09:35:00;18.63;;;1.95;;
82288;SDS011;71889;39.264;-120.910;2023-12-04T09:37:27;20.90;;;1.85;;
82288;SDS011;71889;39.264;-120.910;2023-12-04T09:39:54;12.88;;;1.20;;
82288;SDS011;71889;39.264;-120.910;2023-12-04T09:42:20;9.32;;;1.35;;
82288;SDS011;71889;39.264;-120.910;2023-12-04T09:44:47;15.68;;;1.05;;
82288;SDS011;71889;39.264;-120.910;2023-12-04T09:47:16;12.25;;;0.90;;
82288;SDS011;71889;39.264;-120.910;2023-12-04T09:49:44;19.45;;;1.10;;
82288;SDS011;71889;39.264;-120.910;2023-12-04T09:52:11;6.10;;;0.68;;
82288;SDS011;71889;39.264;-120.910;2023-12-04T09:54:38;2.53;;;0.70;;
82288;SDS011;71889;39.264;-120.910;2023-12-04T09:57:05;2.03;;;1.10;;
82288;SDS011;71889;39.264;-120.910;2023-12-04T09:59:32;8.20;;;1.10;;
82288;SDS011;71889;39.264;-120.910;2023-12-04T10:02:00;9.23;;;1.30;;
82288;SDS011;71889;39.264;-120.910;2023-12-04T10:04:27;7.80;;;1.60;;
82288;SDS011;71889;39.264;-120.910;2023-12-04T10:06:53;13.85;;;1.33;;
82288;SDS011;71889;39.264;-120.910;2023-12-04T10:09:20;2.22;;;0.80;;
82288;SDS011;71889;39.264;-120.910;2023-12-04T10:11:48;1.05;;;0.50;;
82288;SDS011;71889;39.264;-120.910;2023-12-04T10:14:16;1.98;;;1.10;;
82288;SDS011;71889;39.264;-120.910;2023-12-04T10:16:43;5.03;;;1.08;;
82288;SDS011;71889;39.264;-120.910;2023-12-04T10:19:25;4.07;;;1.15;;
82288;SDS011;71889;39.264;-120.910;2023-12-04T10:21:54;6.18;;;1.02;;
82288;SDS011;71889;39.264;-120.910;2023-12-04T10:24:31;5.68;;;0.98;;
82288;SDS011;71889;39.264;-120.910;2023-12-04T10:26:59;13.10;;;0.98;;
82288;SDS011;71889;39.264;-120.910;2023-12-04T10:29:26;5.35;;;0.80;;
82288;SDS011;71889;39.264;-120.910;2023-12-04T10:31:53;4.60;;;0.50;;
82288;SDS011;71889;39.264;-120.910;2023-12-04T10:34:21;9.23;;;0.70;;
82288;SDS011;71889;39.264;-120.910;2023-12-04T10:36:51;10.50;;;1.00;;
82288;SDS011;71889;39.264;-120.910;2023-12-04T10:39:18;1.88;;;0.70;;
82288;SDS011;71889;39.264;-120.910;2023-12-04T10:41:44;3.25;;;0.82;;
82288;SDS011;71889;39.264;-120.910;2023-12-04T10:44:20;1.98;;;0.60;;
82288;SDS011;71889;39.264;-120.910;2023-12-04T10:46:48;3.47;;;1.20;;
82288;SDS011;71889;39.264;-120.910;2023-12-04T10:49:15;2.10;;;0.93;;
82288;SDS011;71889;39.264;-120.910;2023-12-04T10:51:43;1.38;;;0.60;;
82288;SDS011;71889;39.264;-120.910;2023-12-04T10:54:10;1.17;;;0.60;;
82288;SDS011;71889;39.264;-120.910;2023-12-04T10:56:38;2.85;;;0.45;;
82288;SDS011;71889;39.264;-120.910;2023-12-04T10:59:10;1.40;;;0.20;;
82288;SDS011;71889;39.264;-120.910;2023-12-04T11:01:38;0.90;;;0.40;;
82288;SDS011;71889;39.264;-120.910;2023-12-04T11:04:07;2.35;;;0.38;;
82288;SDS011;71889;39.264;-120.910;2023-12-04T11:06:35;1.00;;;0.70;;
82288;SDS011;71889;39.264;-120.910;2023-12-04T11:09:05;0.68;;;0.43;;
82288;SDS011;71889;39.264;-120.910;2023-12-04T11:11:36;2.67;;;0.40;;
82288;SDS011;71889;39.264;-120.910;2023-12-04T11:14:05;0.47;;;0.20;;
82288;SDS011;71889;39.264;-120.910;2023-12-04T11:16:38;0.85;;;0.20;;
82288;SDS011;71889;39.264;-120.910;2023-12-04T11:21:37;0.80;;;0.40;;
82288;SDS011;71889;39.264;-120.910;2023-12-04T11:24:06;1.17;;;0.45;;
82288;SDS011;71889;39.264;-120.910;2023-12-04T11:26:33;3.60;;;0.60;;
82288;SDS011;71889;39.264;-120.910;2023-12-04T11:29:01;2.85;;;0.90;;
82288;SDS011;71889;39.264;-120.910;2023-12-04T11:31:28;3.03;;;0.60;;
82288;SDS011;71889;39.264;-120.910;2023-12-04T11:33:54;2.97;;;0.80;;
82288;SDS011;71889;39.264;-120.910;2023-12-04T11:36:28;2.45;;;1.23;;
82288;SDS011;71889;39.264;-120.910;2023-12-04T11:38:54;2.33;;;0.60;;
82288;SDS011;71889;39.264;-120.910;2023-12-04T11:41:24;3.58;;;0.60;;
82288;SDS011;71889;39.264;-120.910;2023-12-04T11:43:51;2.28;;;0.90;;
82288;SDS011;71889;39.264;-120.910;2023-12-04T11:46:19;2.35;;;0.90;;
82288;SDS011;71889;39.264;-120.910;2023-12-04T11:48:47;4.25;;;0.40;;
82288;SDS011;71889;39.264;-120.910;2023-12-04T11:53:59;2.13;;;1.13;;
82288;SDS011;71889;39.264;-120.910;2023-12-04T11:56:25;2.88;;;1.50;;
82288;SDS011;71889;39.264;-120.910;2023-12-04T11:58:52;1.58;;;0.80;;
82288;SDS011;71889;39.264;-120.910;2023-12-04T12:01:19;2.22;;;0.60;;
82288;SDS011;71889;39.264;-120.910;2023-12-04T12:03:50;4.93;;;0.90;;
82288;SDS011;71889;39.264;-120.910;2023-12-04T12:06:17;1.30;;;0.77;;
82288;SDS011;71889;39.264;-120.910;2023-12-04T12:08:43;1.55;;;0.60;;
82288;SDS011;71889;39.264;-120.910;2023-12-04T12:11:10;1.10;;;0.63;;
82288;SDS011;71889;39.264;-120.910;2023-12-04T12:13:40;1.23;;;0.40;;
82288;SDS011;71889;39.264;-120.910;2023-12-04T12:16:07;0.80;;;0.30;;
82288;SDS011;71889;39.264;-120.910;2023-12-04T12:18:36;7.93;;;0.68;;
82288;SDS011;71889;39.264;-120.910;2023-12-04T12:21:04;2.88;;;0.40;;
82288;SDS011;71889;39.264;-120.910;2023-12-04T12:23:32;8.27;;;0.60;;
82288;SDS011;71889;39.264;-120.910;2023-12-04T12:26:02;5.25;;;0.50;;
82288;SDS011;71889;39.264;-120.910;2023-12-04T12:28:28;17.08;;;1.85;;
82288;SDS011;71889;39.264;-120.910;2023-12-04T12:30:55;3.53;;;1.10;;
82288;SDS011;71889;39.264;-120.910;2023-12-04T12:33:22;9.15;;;0.70;;
82288;SDS011;71889;39.264;-120.910;2023-12-04T12:35:49;18.15;;;0.80;;
82288;SDS011;71889;39.264;-120.910;2023-12-04T12:38:16;6.38;;;0.80;;
82288;SDS011;71889;39.264;-120.910;2023-12-04T12:40:42;19.75;;;2.22;;
82288;SDS011;71889;39.264;-120.910;2023-12-04T12:43:09;15.70;;;1.73;;
82288;SDS011;71889;39.264;-120.910;2023-12-04T12:45:39;8.82;;;1.00;;
82288;SDS011;71889;39.264;-120.910;2023-12-04T12:48:10;6.25;;;1.02;;
82288;SDS011;71889;39.264;-120.910;2023-12-04T12:50:36;13.85;;;1.40;;
82288;SDS011;71889;39.264;-120.910;2023-12-04T12:53:03;1.15;;;0.40;;
82288;SDS011;71889;39.264;-120.910;2023-12-04T12:55:30;0.60;;;0.40;;
82288;SDS011;71889;39.264;-120.910;2023-12-04T12:57:57;1.48;;;0.55;;
82288;SDS011;71889;39.264;-120.910;2023-12-04T13:00:23;1.58;;;0.30;;
82288;SDS011;71889;39.264;-120.910;2023-12-04T13:02:53;1.17;;;0.60;;
82288;SDS011;71889;39.264;-120.910;2023-12-04T13:05:20;1.55;;;0.68;;
82288;SDS011;71889;39.264;-120.910;2023-12-04T13:07:46;2.63;;;0.88;;
82288;SDS011;71889;39.264;-120.910;2023-12-04T13:10:13;4.53;;;1.15;;
82288;SDS011;71889;39.264;-120.910;2023-12-04T13:12:40;5.63;;;1.45;;
82288;SDS011;71889;39.264;-120.910;2023-12-04T13:15:07;2.80;;;1.20;;
82288;SDS011;71889;39.264;-120.910;2023-12-04T13:17:33;5.20;;;2.13;;
82288;SDS011;71889;39.264;-120.910;2023-12-04T13:20:00;4.75;;;1.30;;
82288;SDS011;71889;39.264;-120.910;2023-12-04T13:22:29;2.72;;;0.75;;
82288;SDS011;71889;39.264;-120.910;2023-12-04T13:24:58;1.55;;;0.68;;
82288;SDS011;71889;39.264;-120.910;2023-12-04T13:27:25;0.68;;;0.30;;
82288;SDS011;71889;39.264;-120.910;2023-12-04T13:29:51;0.60;;;0.20;;
82288;SDS011;71889;39.264;-120.910;2023-12-04T13:32:18;1.20;;;0.50;;
82288;SDS011;71889;39.264;-120.910;2023-12-04T13:34:45;2.15;;;0.40;;
82288;SDS011;71889;39.264;-120.910;2023-12-04T13:37:12;1.75;;;0.47;;
82288;SDS011;71889;39.264;-120.910;2023-12-04T13:39:38;2.42;;;1.00;;
82288;SDS011;71889;39.264;-120.910;2023-12-04T13:42:28;6.03;;;1.95;;
82288;SDS011;71889;39.264;-120.910;2023-12-04T13:45:13;18.85;;;4.47;;
82288;SDS011;71889;39.264;-120.910;2023-12-04T13:47:40;9.88;;;3.40;;
82288;SDS011;71889;39.264;-120.910;2023-12-04T13:50:06;7.78;;;2.50;;
82288;SDS011;71889;39.264;-120.910;2023-12-04T13:55:04;2.10;;;0.85;;
82288;SDS011;71889;39.264;-120.910;2023-12-04T13:57:45;2.97;;;1.17;;
82288;SDS011;71889;39.264;-120.910;2023-12-04T14:00:24;3.10;;;0.98;;
82288;SDS011;71889;39.264;-120.910;2023-12-04T14:02:50;4.82;;;2.10;;
82288;SDS011;71889;39.264;-120.910;2023-12-04T14:05:29;10.13;;;3.05;;
82288;SDS011;71889;39.264;-120.910;2023-12-04T14:07:56;5.35;;;1.52;;
82288;SDS011;71889;39.264;-120.910;2023-12-04T14:10:26;8.75;;;1.92;;
82288;SDS011;71889;39.264;-120.910;2023-12-04T14:12:53;6.90;;;1.88;;
82288;SDS011;71889;39.264;-120.910;2023-12-04T14:15:20;7.85;;;1.63;;
82288;SDS011;71889;39.264;-120.910;2023-12-04T14:17:47;4.50;;;0.60;;